createdAt,value
2019-01-29T00:00:42.712Z,21.57
2019-01-29T00:04:07.005Z,22.57
2019-01-29T00:06:54.578Z,36.97
2019-01-29T00:10:18.385Z,37.50
2019-01-29T00:13:07.875Z,40.00
2019-01-29T00:15:56.274Z,41.63
2019-01-29T00:18:44.296Z,54.50
2019-01-29T00:21:32.897Z,59.17
2019-01-29T00:24:20.592Z,39.77
2019-01-29T00:27:08.091Z,32.90
2019-01-29T00:29:58.430Z,35.17
2019-01-29T00:32:46.145Z,39.90
2019-01-29T00:35:58.808Z,32.53
2019-01-29T00:38:46.529Z,32.60
2019-01-29T00:41:33.886Z,38.87
2019-01-29T00:44:23.186Z,37.00
2019-01-29T00:47:10.708Z,26.73
2019-01-29T00:50:45.211Z,25.63
2019-01-29T00:53:32.668Z,27.03
2019-01-29T00:56:19.651Z,30.97
2019-01-29T00:59:18.015Z,28.60
2019-01-29T01:02:24.549Z,25.27
2019-01-29T01:05:33.012Z,10.63
2019-01-29T01:08:27.289Z,8.93
2019-01-29T01:11:14.532Z,9.30
2019-01-29T01:14:12.597Z,9.00
2019-01-29T01:17:28.071Z,7.03
2019-01-29T01:20:16.091Z,7.07
2019-01-29T01:23:03.707Z,7.20
2019-01-29T01:25:51.195Z,9.17
2019-01-29T01:31:35.582Z,7.23
2019-01-29T01:34:24.715Z,8.03
2019-01-29T01:37:12.426Z,7.13
2019-01-29T01:43:47.158Z,7.83
2019-01-29T01:46:34.885Z,7.37
2019-01-29T01:49:21.828Z,7.50
2019-01-29T01:52:12.637Z,7.27
2019-01-29T01:55:08.494Z,8.43
2019-01-29T01:57:56.579Z,7.23
2019-01-29T02:00:44.046Z,7.30
2019-01-29T02:03:31.365Z,6.87
2019-01-29T02:06:18.646Z,7.03
2019-01-29T02:09:07.705Z,7.40
2019-01-29T02:12:00.163Z,7.27
2019-01-29T02:14:50.752Z,7.17
2019-01-29T02:21:28.318Z,6.90
2019-01-29T02:24:14.812Z,6.50
2019-01-29T02:27:14.847Z,6.37
2019-01-29T02:30:02.021Z,7.30
2019-01-29T02:32:49.757Z,6.90
2019-01-29T02:35:37.840Z,7.10
2019-01-29T02:42:26.097Z,6.80
2019-01-29T02:45:14.434Z,6.87
2019-01-29T02:48:02.239Z,7.03
2019-01-29T02:50:52.649Z,6.67
2019-01-29T02:53:39.967Z,6.87
2019-01-29T02:56:27.382Z,6.30
2019-01-29T02:59:15.103Z,6.53
2019-01-29T03:02:05.302Z,7.30
2019-01-29T03:04:53.505Z,7.27
2019-01-29T03:07:41.703Z,6.63
2019-01-29T03:10:29.585Z,7.03
2019-01-29T03:13:17.068Z,7.03
2019-01-29T03:19:33.384Z,6.93
2019-01-29T03:22:39.734Z,6.33
2019-01-29T03:25:27.496Z,6.80
2019-01-29T03:28:18.354Z,6.37
2019-01-29T03:31:06.008Z,7.17
2019-01-29T03:33:54.104Z,6.70
2019-01-29T03:36:48.075Z,7.10
2019-01-29T03:39:30.973Z,6.17
2019-01-29T03:45:47.769Z,6.87
2019-01-29T03:48:35.547Z,5.93
2019-01-29T03:51:23.250Z,6.50
2019-01-29T03:54:46.487Z,6.60
2019-01-29T03:57:34.089Z,6.10
2019-01-29T04:00:22.944Z,6.37
2019-01-29T04:03:10.763Z,6.10
2019-01-29T04:05:58.183Z,6.20
2019-01-29T04:08:45.500Z,6.30
2019-01-29T04:11:35.575Z,5.97
2019-01-29T04:14:54.003Z,5.57
2019-01-29T04:17:14.285Z,5.83
2019-01-29T04:20:01.068Z,5.70
2019-01-29T04:22:48.829Z,5.30
2019-01-29T04:25:36.455Z,6.23
2019-01-29T04:28:34.854Z,5.27
2019-01-29T04:31:23.198Z,6.00
2019-01-29T04:34:10.955Z,5.50
2019-01-29T04:36:58.368Z,5.13
2019-01-29T04:39:52.160Z,5.47
2019-01-29T04:42:39.992Z,7.43
2019-01-29T04:45:51.146Z,5.50
2019-01-29T04:48:39.585Z,7.57
2019-01-29T04:51:29.973Z,5.07
2019-01-29T04:54:19.436Z,5.40
2019-01-29T04:57:10.318Z,6.37
2019-01-29T05:00:01.394Z,5.00
2019-01-29T05:02:49.222Z,5.40
2019-01-29T05:05:36.680Z,7.03
2019-01-29T05:08:24.406Z,5.70
2019-01-29T05:11:12.026Z,5.80
2019-01-29T05:14:02.798Z,5.70
2019-01-29T05:20:39.885Z,7.07
2019-01-29T05:23:27.720Z,5.07
2019-01-29T05:26:15.218Z,5.40
2019-01-29T05:29:06.465Z,5.37
2019-01-29T05:31:54.132Z,5.50
2019-01-29T05:34:42.027Z,5.50
2019-01-29T05:37:30.029Z,5.57
2019-01-29T05:40:39.192Z,5.23
2019-01-29T05:43:27.645Z,5.20
2019-01-29T05:50:25.802Z,5.30
2019-01-29T06:00:05.072Z,5.00
2019-01-29T06:13:17.542Z,5.27
2019-01-29T06:19:43.874Z,4.60
2019-01-29T06:23:24.003Z,5.17
2019-01-29T06:26:32.850Z,4.17
2019-01-29T06:29:22.209Z,4.83
2019-01-29T06:33:09.765Z,5.03
2019-01-29T06:39:53.053Z,4.20
2019-01-29T06:42:42.471Z,4.33
2019-01-29T06:48:41.453Z,7.13
2019-01-29T06:51:28.920Z,4.23
2019-01-29T06:54:20.098Z,4.17
2019-01-29T06:57:08.360Z,4.00
2019-01-29T06:59:58.017Z,4.10
2019-01-29T07:03:31.598Z,4.30
2019-01-29T07:06:50.534Z,4.67
2019-01-29T07:13:26.727Z,4.40
2019-01-29T07:16:29.516Z,4.20
2019-01-29T07:23:03.969Z,3.93
2019-01-29T07:26:31.155Z,4.23
2019-01-29T07:29:19.078Z,5.53
2019-01-29T07:32:21.364Z,22.30
2019-01-29T07:35:08.942Z,25.17
2019-01-29T07:38:39.844Z,27.73
2019-01-29T07:41:48.585Z,27.27
2019-01-29T07:44:36.119Z,30.13
2019-01-29T07:47:24.143Z,25.60
2019-01-29T07:53:40.609Z,26.17
2019-01-29T07:56:28.051Z,46.30
2019-01-29T07:59:15.181Z,27.80
2019-01-29T08:02:02.748Z,28.20
2019-01-29T08:04:51.456Z,26.23
2019-01-29T08:07:38.568Z,29.10
2019-01-29T08:10:26.458Z,27.43
2019-01-29T08:13:16.575Z,28.97
2019-01-29T08:16:04.665Z,28.53
2019-01-29T08:18:53.598Z,31.10
2019-01-29T08:21:40.849Z,29.90
2019-01-29T08:24:28.098Z,29.67
2019-01-29T08:27:16.265Z,38.00
2019-01-29T08:30:05.140Z,34.73
2019-01-29T08:32:52.788Z,43.97
2019-01-29T08:35:41.542Z,36.17
2019-01-29T08:38:31.704Z,34.10
2019-01-29T08:41:19.303Z,31.53
2019-01-29T08:44:07.821Z,32.00
2019-01-29T08:46:56.161Z,30.43
2019-01-29T08:49:44.243Z,29.70
2019-01-29T08:52:31.318Z,28.33
2019-01-29T08:55:19.470Z,27.27
2019-01-29T08:58:08.687Z,29.83
2019-01-29T09:00:57.303Z,22.97
2019-01-29T09:03:44.675Z,21.70
2019-01-29T09:06:33.843Z,21.77
2019-01-29T09:09:21.491Z,21.63
2019-01-29T09:12:09.400Z,21.63
2019-01-29T09:14:58.368Z,19.77
2019-01-29T09:17:54.405Z,19.83
2019-01-29T09:21:35.368Z,18.90
2019-01-29T09:41:49.988Z,21.60
2019-01-29T09:44:41.936Z,19.83
2019-01-29T09:47:35.756Z,22.23
2019-01-29T09:54:05.611Z,25.70
2019-01-29T09:56:53.083Z,21.73
2019-01-29T09:59:43.019Z,23.03
2019-01-29T10:02:33.828Z,21.90
2019-01-29T10:05:21.056Z,21.27
2019-01-29T10:08:09.955Z,21.00
2019-01-29T10:10:57.502Z,19.83
2019-01-29T10:13:45.297Z,19.33
2019-01-29T10:16:32.647Z,20.20
2019-01-29T10:19:19.797Z,18.83
2019-01-29T10:22:07.150Z,17.57
2019-01-29T10:24:54.688Z,18.13
2019-01-29T10:27:42.558Z,16.83
2019-01-29T10:30:30.358Z,17.10
2019-01-29T10:33:18.530Z,14.83
2019-01-29T10:36:08.356Z,14.90
2019-01-29T10:38:55.807Z,14.53
2019-01-29T10:41:44.009Z,14.53
2019-01-29T10:44:50.738Z,13.80
2019-01-29T10:47:47.282Z,13.80
2019-01-29T10:50:34.683Z,14.70
2019-01-29T10:53:29.829Z,13.97
2019-01-29T10:56:17.223Z,14.60
2019-01-29T10:59:10.938Z,14.20
2019-01-29T11:01:58.892Z,13.63
2019-01-29T11:04:46.906Z,14.03
2019-01-29T11:07:34.999Z,14.23
2019-01-29T11:10:22.224Z,16.10
2019-01-29T11:13:10.249Z,13.70
2019-01-29T11:15:57.752Z,12.50
2019-01-29T11:18:44.797Z,12.57
2019-01-29T11:21:32.792Z,12.07
2019-01-29T11:24:33.149Z,11.50
2019-01-29T11:27:20.698Z,11.27
2019-01-29T11:30:09.851Z,10.93
2019-01-29T11:32:58.997Z,10.40
2019-01-29T11:35:47.108Z,10.87
2019-01-29T11:38:35.248Z,10.70
2019-01-29T11:41:22.866Z,11.00
2019-01-29T11:44:10.491Z,11.00
2019-01-29T11:46:58.073Z,10.60
2019-01-29T11:49:48.117Z,10.50
2019-01-29T11:52:36.237Z,11.13
2019-01-29T11:55:23.757Z,16.30
2019-01-29T11:58:11.313Z,10.70
2019-01-29T12:01:09.602Z,10.63
2019-01-29T12:04:04.107Z,10.13
2019-01-29T12:06:52.317Z,10.10
2019-01-29T12:09:40.964Z,10.20
2019-01-29T12:12:37.938Z,10.53
2019-01-29T12:15:25.390Z,9.70
2019-01-29T12:18:13.147Z,9.77
2019-01-29T12:21:22.826Z,10.73
2019-01-29T12:24:11.317Z,9.90
2019-01-29T12:26:59.069Z,10.07
2019-01-29T12:33:25.815Z,9.17
2019-01-29T12:36:13.558Z,8.60
2019-01-29T12:39:01.532Z,9.20
2019-01-29T12:41:48.815Z,9.30
2019-01-29T12:44:36.534Z,9.10
2019-01-29T12:47:23.755Z,9.07
2019-01-29T12:50:15.572Z,8.60
2019-01-29T12:53:39.747Z,8.87
2019-01-29T12:56:30.522Z,8.03
2019-01-29T13:00:01.225Z,8.67
2019-01-29T13:02:51.287Z,8.10
2019-01-29T13:05:38.568Z,8.40
2019-01-29T13:08:25.798Z,8.20
2019-01-29T13:11:13.167Z,8.10
2019-01-29T13:14:00.964Z,7.87
2019-01-29T13:17:03.956Z,7.63
2019-01-29T13:19:55.658Z,7.73
2019-01-29T13:22:43.409Z,8.17
2019-01-29T13:25:30.940Z,8.20
2019-01-29T13:28:18.409Z,7.23
2019-01-29T13:31:05.975Z,7.80
2019-01-29T13:33:53.428Z,7.40
2019-01-29T13:36:42.372Z,7.33
2019-01-29T13:39:30.077Z,7.13
2019-01-29T13:45:44.168Z,7.20
2019-01-29T13:49:07.491Z,6.47
2019-01-29T13:58:37.647Z,6.30
2019-01-29T14:05:13.327Z,6.00
2019-01-29T14:08:07.535Z,5.50
2019-01-29T14:11:33.163Z,5.90
2019-01-29T14:14:58.419Z,5.60
2019-01-29T14:21:49.340Z,5.00
2019-01-29T14:32:42.754Z,4.50
2019-01-29T14:51:33.625Z,3.30
2019-01-29T14:54:21.310Z,2.83
2019-01-29T15:00:50.863Z,2.87
2019-01-29T15:04:10.788Z,2.80
2019-01-29T15:07:15.093Z,2.90
2019-01-29T15:13:33.223Z,3.10
2019-01-29T15:20:01.841Z,2.50
2019-01-29T15:23:34.424Z,2.87
2019-01-29T15:29:18.067Z,2.83
2019-01-29T15:32:46.619Z,3.17
2019-01-29T15:39:30.420Z,2.50
2019-01-29T15:42:56.272Z,3.10
2019-01-29T15:49:30.603Z,3.47
2019-01-29T15:52:49.052Z,2.77
2019-01-29T16:01:30.343Z,2.93
2019-01-29T16:02:21.177Z,2.90
2019-01-29T16:12:07.013Z,2.87
2019-01-29T16:22:10.716Z,3.10
2019-01-29T16:25:22.237Z,3.57
2019-01-29T16:31:41.698Z,3.40
2019-01-29T16:34:51.419Z,3.30
2019-01-29T16:37:38.865Z,3.60
2019-01-29T16:40:26.996Z,3.60
2019-01-29T16:43:20.904Z,3.23
2019-01-29T16:46:08.585Z,3.50
2019-01-29T16:48:59.248Z,3.67
2019-01-29T16:51:46.690Z,3.90
2019-01-29T16:54:34.219Z,3.80
2019-01-29T16:57:31.747Z,3.57
2019-01-29T17:00:25.521Z,4.40
2019-01-29T17:03:13.496Z,4.53
2019-01-29T17:06:01.048Z,4.27
2019-01-29T17:09:24.055Z,3.60
2019-01-29T17:12:11.566Z,3.50
2019-01-29T17:14:59.618Z,3.60
2019-01-29T17:18:08.148Z,5.03
2019-01-29T17:20:55.601Z,3.73
2019-01-29T17:23:42.984Z,5.17
2019-01-29T17:26:31.129Z,4.70
2019-01-29T17:29:18.788Z,3.90
2019-01-29T17:32:06.396Z,4.23
2019-01-29T17:34:53.484Z,3.73
2019-01-29T17:37:40.970Z,4.07
2019-01-29T17:40:28.698Z,4.53
2019-01-29T17:43:16.202Z,4.13
2019-01-29T17:46:03.685Z,4.43
2019-01-29T17:48:51.691Z,4.80
2019-01-29T17:51:38.895Z,4.83
2019-01-29T17:54:26.579Z,3.93
2019-01-29T17:57:17.284Z,3.73
2019-01-29T18:00:08.832Z,3.80
2019-01-29T18:02:56.450Z,4.70
2019-01-29T18:05:44.206Z,3.90
2019-01-29T18:08:31.780Z,3.70
2019-01-29T18:11:19.141Z,4.17
2019-01-29T18:14:06.350Z,4.00
2019-01-29T18:16:55.787Z,4.20
2019-01-29T18:19:45.740Z,3.80
2019-01-29T18:22:33.183Z,4.20
2019-01-29T18:25:21.011Z,4.17
2019-01-29T18:28:08.727Z,4.27
2019-01-29T18:30:55.794Z,4.23
2019-01-29T18:33:43.544Z,4.20
2019-01-29T18:36:30.884Z,4.20
2019-01-29T18:39:18.137Z,4.83
2019-01-29T18:42:05.911Z,4.30
2019-01-29T18:44:53.524Z,4.07
2019-01-29T18:47:56.183Z,4.20
2019-01-29T18:50:43.552Z,4.07
2019-01-29T18:53:31.186Z,4.67
2019-01-29T18:56:18.672Z,4.23
2019-01-29T18:59:06.613Z,4.80
2019-01-29T19:01:53.810Z,6.47
2019-01-29T19:04:41.939Z,5.00
2019-01-29T19:07:29.612Z,4.17
2019-01-29T19:10:17.536Z,4.30
2019-01-29T19:13:05.684Z,4.93
2019-01-29T19:15:53.344Z,4.80
2019-01-29T19:18:41.079Z,5.27
2019-01-29T19:21:28.766Z,4.70
2019-01-29T19:24:25.974Z,4.97
2019-01-29T19:27:13.363Z,5.57
2019-01-29T19:30:01.166Z,5.53
2019-01-29T19:32:49.140Z,5.47
2019-01-29T19:35:36.797Z,4.93
2019-01-29T19:38:24.359Z,6.13
2019-01-29T19:41:12.082Z,4.90
2019-01-29T19:43:59.537Z,5.27
2019-01-29T19:46:46.686Z,5.83
2019-01-29T19:49:34.792Z,4.83
2019-01-29T19:52:22.259Z,4.93
2019-01-29T19:55:10.093Z,5.27
2019-01-29T19:57:57.485Z,4.87
2019-01-29T20:00:45.056Z,5.83
2019-01-29T20:03:32.711Z,4.70
2019-01-29T20:06:20.069Z,5.60
2019-01-29T20:09:10.044Z,5.13
2019-01-29T20:11:57.721Z,5.87
2019-01-29T20:14:45.335Z,4.57
2019-01-29T20:17:35.030Z,4.57
2019-01-29T20:20:24.039Z,5.10
2019-01-29T20:23:11.927Z,5.00
2019-01-29T20:25:59.973Z,4.90
2019-01-29T20:28:49.526Z,5.57
2019-01-29T20:31:37.176Z,5.07
2019-01-29T20:34:24.774Z,5.13
2019-01-29T20:37:12.496Z,4.53
2019-01-29T20:39:59.989Z,4.53
2019-01-29T20:42:47.888Z,4.50
2019-01-29T20:45:35.281Z,3.87
2019-01-29T20:48:22.791Z,3.83
2019-01-29T20:51:10.588Z,4.10
2019-01-29T20:53:57.898Z,5.00
2019-01-29T20:56:45.759Z,4.60
2019-01-29T20:59:33.386Z,4.10
2019-01-29T21:02:20.902Z,3.80
2019-01-29T21:08:14.357Z,3.90
2019-01-29T21:11:02.697Z,4.10
2019-01-29T21:13:50.812Z,4.30
2019-01-29T21:16:39.671Z,3.80
2019-01-29T21:19:27.409Z,3.93
2019-01-29T21:22:14.906Z,3.90
2019-01-29T21:25:02.175Z,4.40
2019-01-29T21:27:49.662Z,3.90
2019-01-29T21:30:38.051Z,6.07
2019-01-29T21:33:25.827Z,3.83
2019-01-29T21:36:13.552Z,4.20
2019-01-29T21:39:01.422Z,4.33
2019-01-29T21:41:48.478Z,3.77
2019-01-29T21:48:04.364Z,3.87
2019-01-29T21:50:52.290Z,4.33
2019-01-29T21:53:41.706Z,4.17
2019-01-29T21:56:56.157Z,4.27
2019-01-29T21:59:43.504Z,4.50
2019-01-29T22:02:31.280Z,3.97
2019-01-29T22:05:18.911Z,3.67
2019-01-29T22:08:07.086Z,3.40
2019-01-29T22:10:54.916Z,3.70
2019-01-29T22:13:43.241Z,3.63
2019-01-29T22:16:31.168Z,4.43
2019-01-29T22:19:22.074Z,4.47
2019-01-29T22:22:09.286Z,3.93
2019-01-29T22:24:56.851Z,3.80
2019-01-29T22:27:43.888Z,3.73
2019-01-29T22:30:37.271Z,3.40
2019-01-29T22:33:25.253Z,3.97
2019-01-29T22:36:13.378Z,3.80
2019-01-29T22:39:00.946Z,3.73
2019-01-29T22:41:48.290Z,3.80
2019-01-29T22:44:35.603Z,3.60
2019-01-29T22:47:23.512Z,4.40
2019-01-29T22:50:15.502Z,3.37
2019-01-29T22:53:03.198Z,3.37
2019-01-29T22:55:50.696Z,3.53
2019-01-29T22:58:38.221Z,3.60
2019-01-29T23:01:31.227Z,3.50
2019-01-29T23:04:41.652Z,3.20
2019-01-29T23:07:30.931Z,3.30
2019-01-29T23:10:19.055Z,3.40
2019-01-29T23:13:07.110Z,3.60
2019-01-29T23:15:55.418Z,4.07
2019-01-29T23:18:42.736Z,3.50
2019-01-29T23:21:42.942Z,3.57
2019-01-29T23:24:29.980Z,3.50
2019-01-29T23:27:17.750Z,4.27
2019-01-29T23:30:07.244Z,4.13
2019-01-29T23:32:55.012Z,3.43
2019-01-29T23:35:42.189Z,3.90
2019-01-29T23:38:32.190Z,4.30
2019-01-29T23:41:18.762Z,3.87
2019-01-29T23:44:06.095Z,4.13
2019-01-29T23:46:53.822Z,3.60
2019-01-29T23:49:41.241Z,3.63
2019-01-29T23:52:28.831Z,3.73
2019-01-29T23:55:16.362Z,3.33
2019-01-29T23:58:03.650Z,4.17
